createdAt,value
2018-03-20T00:01:28.366Z,5.10
2018-03-20T00:03:56.268Z,5.32
2018-03-20T00:06:24.180Z,6.35
2018-03-20T00:08:52.085Z,6.50
2018-03-20T00:11:19.985Z,5.47
2018-03-20T00:13:47.909Z,5.82
2018-03-20T00:16:15.821Z,5.70
2018-03-20T00:18:43.743Z,6.45
2018-03-20T00:21:11.660Z,5.93
2018-03-20T00:23:39.560Z,7.00
2018-03-20T00:26:07.480Z,5.75
2018-03-20T00:28:35.400Z,6.87
2018-03-20T00:31:03.334Z,6.30
2018-03-20T00:33:31.281Z,5.82
2018-03-20T00:35:59.203Z,6.43
2018-03-20T00:38:27.173Z,6.47
2018-03-20T00:40:55.079Z,6.28
2018-03-20T00:43:23.005Z,8.05
2018-03-20T00:45:50.948Z,6.62
2018-03-20T00:48:18.848Z,6.00
2018-03-20T00:50:46.780Z,6.05
2018-03-20T00:53:14.684Z,6.80
2018-03-20T00:55:42.949Z,6.20
2018-03-20T00:58:10.864Z,6.90
2018-03-20T01:00:38.759Z,6.22
2018-03-20T01:03:06.664Z,7.03
2018-03-20T01:05:34.600Z,7.28
2018-03-20T01:08:02.519Z,6.87
2018-03-20T01:10:30.417Z,6.95
2018-03-20T01:12:58.328Z,7.35
2018-03-20T01:15:26.238Z,6.47
2018-03-20T01:17:54.146Z,7.18
2018-03-20T01:20:22.660Z,6.78
2018-03-20T01:22:50.559Z,7.15
2018-03-20T01:25:18.491Z,8.68
2018-03-20T01:27:46.396Z,7.80
2018-03-20T01:30:14.321Z,8.38
2018-03-20T01:32:42.229Z,8.25
2018-03-20T01:35:10.133Z,8.30
2018-03-20T01:37:38.051Z,8.98
2018-03-20T01:40:05.952Z,8.70
2018-03-20T01:42:33.873Z,8.68
2018-03-20T01:45:01.786Z,9.35
2018-03-20T01:47:29.716Z,9.05
2018-03-20T01:49:57.640Z,8.30
2018-03-20T01:52:25.541Z,9.20
2018-03-20T01:54:53.716Z,8.38
2018-03-20T01:57:21.621Z,8.70
2018-03-20T01:59:49.552Z,8.35
2018-03-20T02:02:17.460Z,8.80
2018-03-20T02:04:45.388Z,7.62
2018-03-20T02:07:13.306Z,7.80
2018-03-20T02:09:41.222Z,6.93
2018-03-20T02:12:09.141Z,6.50
2018-03-20T02:14:37.056Z,7.12
2018-03-20T02:17:04.960Z,7.00
2018-03-20T02:19:32.891Z,7.18
2018-03-20T02:22:00.802Z,7.10
2018-03-20T02:24:29.257Z,6.85
2018-03-20T02:26:57.986Z,7.35
2018-03-20T02:29:25.898Z,8.32
2018-03-20T02:31:53.809Z,6.93
2018-03-20T02:34:21.709Z,6.90
2018-03-20T02:36:49.617Z,5.80
2018-03-20T02:39:17.534Z,6.50
2018-03-20T02:41:45.454Z,6.40
2018-03-20T02:44:13.350Z,6.47
2018-03-20T02:46:41.308Z,8.57
2018-03-20T02:49:09.233Z,6.82
2018-03-20T02:51:37.141Z,6.03
2018-03-20T02:54:05.572Z,7.43
2018-03-20T02:56:33.513Z,6.05
2018-03-20T02:59:01.440Z,6.00
2018-03-20T03:01:29.345Z,5.57
2018-03-20T03:03:57.267Z,6.05
2018-03-20T03:06:25.180Z,5.70
2018-03-20T03:08:53.100Z,4.95
2018-03-20T03:11:21.013Z,6.10
2018-03-20T03:13:48.939Z,4.87
2018-03-20T03:16:16.850Z,5.43
2018-03-20T03:18:44.773Z,5.95
2018-03-20T03:21:12.705Z,5.70
2018-03-20T03:23:40.630Z,6.68
2018-03-20T03:26:08.560Z,5.05
2018-03-20T03:28:36.831Z,5.45
2018-03-20T03:31:04.754Z,5.70
2018-03-20T03:33:32.677Z,5.00
2018-03-20T03:36:00.584Z,5.75
2018-03-20T03:38:28.512Z,5.55
2018-03-20T03:40:56.485Z,5.03
2018-03-20T03:43:24.396Z,5.30
2018-03-20T03:45:52.320Z,6.68
2018-03-20T03:48:20.247Z,5.60
2018-03-20T03:50:48.181Z,7.07
2018-03-20T03:53:16.484Z,5.35
2018-03-20T03:55:44.413Z,5.57
2018-03-20T03:58:12.322Z,5.47
2018-03-20T04:00:40.249Z,6.80
2018-03-20T04:03:08.162Z,4.15
2018-03-20T04:05:36.071Z,5.22
2018-03-20T04:08:03.988Z,5.50
2018-03-20T04:10:31.904Z,4.78
2018-03-20T04:12:59.809Z,5.60
2018-03-20T04:15:27.726Z,4.68
2018-03-20T04:17:55.644Z,4.87
2018-03-20T04:20:23.576Z,4.80
2018-03-20T04:22:51.498Z,5.28
2018-03-20T04:25:19.957Z,5.10
2018-03-20T04:27:47.864Z,5.75
2018-03-20T04:30:15.773Z,6.05
2018-03-20T04:32:43.674Z,6.45
2018-03-20T04:35:11.575Z,6.40
2018-03-20T04:37:39.494Z,6.43
2018-03-20T04:40:07.409Z,5.90
2018-03-20T04:42:35.345Z,6.57
2018-03-20T04:45:03.272Z,5.85
2018-03-20T04:47:31.181Z,5.60
2018-03-20T04:49:59.092Z,5.70
2018-03-20T04:52:27.373Z,4.10
2018-03-20T04:54:55.289Z,5.82
2018-03-20T04:57:23.192Z,5.60
2018-03-20T04:59:51.099Z,6.15
2018-03-20T05:02:19.003Z,4.50
2018-03-20T05:04:46.903Z,4.93
2018-03-20T05:07:14.804Z,4.82
2018-03-20T05:09:42.712Z,4.57
2018-03-20T05:12:10.611Z,4.60
2018-03-20T05:14:38.556Z,4.85
2018-03-20T05:17:06.480Z,4.93
2018-03-20T05:19:34.407Z,5.37
2018-03-20T05:22:07.138Z,5.07
2018-03-20T05:24:35.102Z,4.93
2018-03-20T05:27:03.019Z,4.45
2018-03-20T05:29:30.932Z,4.37
2018-03-20T05:31:58.852Z,4.70
2018-03-20T05:34:26.801Z,4.35
2018-03-20T05:36:55.255Z,4.45
2018-03-20T05:39:23.161Z,3.70
2018-03-20T05:41:51.102Z,5.47
2018-03-20T05:44:19.021Z,3.87
2018-03-20T05:49:54.552Z,3.05
2018-03-20T05:52:22.473Z,3.92
2018-03-20T05:54:50.390Z,3.40
2018-03-20T05:57:18.288Z,3.70
2018-03-20T05:59:46.189Z,3.70
2018-03-20T06:02:14.108Z,3.83
2018-03-20T06:04:42.023Z,3.65
2018-03-20T06:07:09.940Z,3.70
2018-03-20T06:09:37.857Z,3.92
2018-03-20T06:12:05.824Z,3.58
2018-03-20T06:14:33.738Z,3.60
2018-03-20T06:17:01.645Z,2.85
2018-03-20T06:19:29.543Z,2.60
2018-03-20T06:21:57.887Z,3.30
2018-03-20T06:24:25.793Z,2.70
2018-03-20T06:26:53.769Z,2.78
2018-03-20T06:29:21.768Z,2.53
2018-03-20T06:31:49.706Z,2.65
2018-03-20T06:34:17.778Z,3.33
2018-03-20T06:36:45.692Z,2.75
2018-03-20T06:39:13.608Z,2.95
2018-03-20T06:41:41.511Z,4.35
2018-03-20T06:44:09.440Z,3.55
2018-03-20T06:46:37.354Z,3.22
2018-03-20T06:49:05.407Z,3.10
2018-03-20T06:51:33.345Z,3.92
2018-03-20T06:54:01.268Z,3.22
2018-03-20T06:56:29.180Z,3.00
2018-03-20T06:58:57.100Z,2.85
2018-03-20T07:01:25.034Z,3.08
2018-03-20T07:03:52.962Z,2.75
2018-03-20T07:06:21.324Z,3.20
2018-03-20T07:08:49.237Z,2.28
2018-03-20T07:11:17.140Z,2.33
2018-03-20T07:13:45.071Z,2.30
2018-03-20T07:16:12.989Z,2.50
2018-03-20T07:18:40.904Z,2.08
2018-03-20T07:21:08.828Z,2.70
2018-03-20T07:23:37.205Z,2.40
2018-03-20T07:26:05.117Z,2.70
2018-03-20T07:28:33.054Z,4.53
2018-03-20T07:31:00.952Z,3.78
2018-03-20T07:33:28.861Z,2.87
2018-03-20T07:35:56.784Z,2.83
2018-03-20T07:38:24.694Z,3.20
2018-03-20T07:40:52.612Z,2.58
2018-03-20T07:43:20.531Z,2.22
2018-03-20T07:45:48.464Z,3.08
2018-03-20T07:48:16.381Z,2.60
2018-03-20T07:50:44.301Z,2.20
2018-03-20T07:53:12.747Z,2.25
2018-03-20T07:55:40.678Z,2.08
2018-03-20T07:58:08.581Z,1.92
2018-03-20T08:00:36.489Z,3.05
2018-03-20T08:03:04.403Z,2.30
2018-03-20T08:05:32.304Z,2.05
2018-03-20T08:08:00.228Z,1.83
2018-03-20T08:10:28.144Z,1.95
2018-03-20T08:12:56.056Z,2.12
2018-03-20T08:15:23.966Z,1.98
2018-03-20T08:17:51.873Z,1.73
2018-03-20T08:20:20.096Z,1.60
2018-03-20T08:22:48.020Z,1.85
2018-03-20T08:25:15.920Z,1.92
2018-03-20T08:27:43.857Z,1.85
2018-03-20T08:30:11.757Z,1.80
2018-03-20T08:32:39.660Z,2.10
2018-03-20T08:35:07.569Z,1.90
2018-03-20T08:37:35.470Z,1.87
2018-03-20T08:40:03.396Z,1.23
2018-03-20T08:42:31.291Z,1.40
2018-03-20T08:44:59.265Z,1.70
2018-03-20T08:47:27.231Z,1.27
2018-03-20T08:49:55.194Z,1.77
2018-03-20T08:52:23.154Z,2.25
2018-03-20T08:54:51.140Z,1.95
2018-03-20T08:57:19.459Z,1.20
2018-03-20T08:59:47.398Z,1.40
2018-03-20T09:02:15.440Z,2.10
2018-03-20T09:04:43.398Z,1.15
2018-03-20T09:07:11.321Z,1.23
2018-03-20T09:09:39.244Z,1.70
2018-03-20T09:12:07.161Z,1.57
2018-03-20T09:14:35.080Z,1.17
2018-03-20T09:17:03.000Z,1.10
2018-03-20T09:19:30.924Z,1.03
2018-03-20T09:21:58.821Z,1.50
2018-03-20T09:24:26.770Z,1.30
2018-03-20T09:26:54.685Z,1.27
2018-03-20T09:29:22.604Z,1.70
2018-03-20T09:31:50.504Z,1.70
2018-03-20T09:34:18.440Z,1.60
2018-03-20T09:36:46.740Z,1.47
2018-03-20T09:39:14.642Z,1.57
2018-03-20T09:41:42.566Z,1.43
2018-03-20T09:44:10.485Z,1.50
2018-03-20T09:46:38.391Z,1.20
2018-03-20T09:49:06.318Z,1.10
2018-03-20T09:51:34.238Z,1.37
2018-03-20T09:54:02.166Z,1.27
2018-03-20T09:56:37.049Z,1.30
2018-03-20T09:59:04.972Z,1.07
2018-03-20T10:01:32.884Z,1.27
2018-03-20T10:04:00.808Z,1.20
2018-03-20T10:06:28.729Z,1.20
2018-03-20T10:08:56.629Z,1.80
2018-03-20T10:11:24.540Z,1.20
2018-03-20T10:13:52.448Z,1.20
2018-03-20T10:16:20.352Z,2.17
2018-03-20T10:18:48.280Z,1.23
2018-03-20T10:21:16.192Z,0.93
2018-03-20T10:23:44.100Z,1.23
2018-03-20T10:26:12.495Z,1.77
2018-03-20T10:28:40.441Z,0.90
2018-03-20T10:31:08.349Z,0.93
2018-03-20T10:33:36.257Z,0.90
2018-03-20T10:36:04.174Z,1.40
2018-03-20T10:38:32.084Z,1.10
2018-03-20T10:41:00.004Z,1.30
2018-03-20T10:43:27.936Z,1.20
2018-03-20T10:45:55.845Z,1.00
2018-03-20T10:48:23.774Z,1.10
2018-03-20T10:50:51.680Z,1.63
2018-03-20T10:53:19.614Z,0.93
2018-03-20T10:55:47.553Z,1.40
2018-03-20T10:58:15.452Z,0.83
2018-03-20T11:00:47.373Z,0.93
2018-03-20T11:03:15.299Z,1.10
2018-03-20T11:05:43.210Z,0.83
2018-03-20T11:08:11.131Z,1.17
2018-03-20T11:10:39.024Z,0.90
2018-03-20T11:13:06.935Z,1.00
2018-03-20T11:15:34.855Z,0.90
2018-03-20T11:18:02.802Z,1.00
2018-03-20T11:20:30.704Z,1.00
2018-03-20T11:22:59.144Z,1.40
2018-03-20T11:25:27.056Z,1.00
2018-03-20T11:27:54.969Z,1.00
2018-03-20T11:30:22.876Z,0.93
2018-03-20T11:32:50.808Z,0.97
2018-03-20T11:35:18.725Z,1.33
2018-03-20T11:37:46.645Z,0.67
2018-03-20T11:40:14.556Z,1.10
2018-03-20T11:42:42.467Z,1.00
2018-03-20T11:45:10.371Z,1.10
2018-03-20T11:47:38.277Z,0.80
2018-03-20T11:50:06.187Z,0.93
2018-03-20T11:52:34.460Z,0.93
2018-03-20T11:55:02.365Z,0.80
2018-03-20T11:57:30.260Z,1.20
2018-03-20T11:59:58.180Z,1.10
2018-03-20T12:02:26.100Z,1.03
2018-03-20T12:04:54.013Z,0.70
2018-03-20T12:07:21.981Z,1.17
2018-03-20T12:09:50.268Z,0.87
2018-03-20T12:12:18.163Z,0.70
2018-03-20T12:14:46.073Z,0.67
2018-03-20T12:17:13.987Z,0.83
2018-03-20T12:19:41.908Z,0.80
2018-03-20T12:22:09.841Z,0.87
2018-03-20T12:24:37.745Z,0.90
2018-03-20T12:27:06.044Z,0.90
2018-03-20T12:29:33.953Z,0.83
2018-03-20T12:32:01.878Z,1.27
2018-03-20T12:34:29.793Z,0.80
2018-03-20T12:36:57.730Z,1.00
2018-03-20T12:39:25.630Z,1.20
2018-03-20T12:41:53.568Z,1.27
2018-03-20T12:44:21.465Z,1.10
2018-03-20T12:46:49.377Z,0.90
2018-03-20T12:49:17.287Z,1.07
2018-03-20T12:51:45.203Z,1.07
2018-03-20T12:54:13.601Z,1.17
2018-03-20T12:56:41.519Z,0.83
2018-03-20T12:59:09.420Z,0.93
2018-03-20T13:01:37.329Z,1.13
2018-03-20T13:04:05.240Z,0.67
2018-03-20T13:06:33.144Z,0.97
2018-03-20T13:09:01.041Z,0.70
2018-03-20T13:11:28.945Z,0.90
2018-03-20T13:13:56.869Z,0.80
2018-03-20T13:16:24.783Z,0.77
2018-03-20T13:18:52.704Z,1.50
2018-03-20T13:21:20.652Z,1.00
2018-03-20T13:23:48.557Z,1.00
2018-03-20T13:26:16.452Z,1.30
2018-03-20T13:28:44.390Z,1.10
2018-03-20T13:31:12.308Z,1.40
2018-03-20T13:33:40.229Z,2.13
2018-03-20T13:36:09.007Z,1.30
2018-03-20T13:38:36.922Z,1.00
2018-03-20T13:41:04.868Z,1.00
2018-03-20T13:43:32.800Z,0.70
2018-03-20T13:46:00.721Z,1.00
2018-03-20T13:48:28.636Z,1.10
2018-03-20T13:50:58.678Z,0.93
2018-03-20T13:53:26.922Z,0.60
2018-03-20T13:55:54.844Z,0.90
2018-03-20T13:58:22.749Z,0.73
2018-03-20T14:00:50.661Z,1.10
2018-03-20T14:03:18.561Z,1.33
2018-03-20T14:05:46.487Z,0.80
2018-03-20T14:08:14.401Z,0.70
2018-03-20T14:10:42.332Z,1.40
2018-03-20T14:13:10.265Z,1.07
2018-03-20T14:15:38.196Z,1.30
2018-03-20T14:18:06.110Z,0.80
2018-03-20T14:20:34.577Z,1.33
2018-03-20T14:23:02.490Z,1.63
2018-03-20T14:25:30.396Z,1.10
2018-03-20T14:27:58.300Z,1.40
2018-03-20T14:30:26.215Z,1.40
2018-03-20T14:32:54.129Z,0.97
2018-03-20T14:35:22.044Z,1.40
2018-03-20T14:37:50.395Z,1.00
2018-03-20T14:40:18.296Z,1.30
2018-03-20T14:42:46.200Z,1.10
2018-03-20T14:45:14.115Z,1.30
2018-03-20T14:47:42.012Z,1.20
2018-03-20T14:50:09.917Z,1.83
2018-03-20T14:52:37.843Z,1.17
2018-03-20T14:55:05.784Z,1.10
2018-03-20T14:57:33.687Z,0.90
2018-03-20T15:00:01.601Z,0.80
2018-03-20T15:02:29.530Z,1.23
2018-03-20T15:04:57.448Z,1.77
2018-03-20T15:07:25.348Z,1.00
2018-03-20T15:09:53.256Z,1.27
2018-03-20T15:12:21.200Z,1.00
2018-03-20T15:14:49.105Z,1.30
2018-03-20T15:17:17.004Z,1.10
2018-03-20T15:19:45.400Z,1.07
2018-03-20T15:22:13.268Z,0.90
2018-03-20T15:24:41.194Z,1.43
2018-03-20T15:27:09.124Z,1.23
2018-03-20T15:29:37.053Z,1.17
2018-03-20T15:32:04.956Z,1.00
2018-03-20T15:34:32.884Z,1.10
2018-03-20T15:37:00.789Z,1.23
2018-03-20T15:39:28.723Z,1.13
2018-03-20T15:41:56.663Z,1.30
2018-03-20T15:44:24.565Z,0.97
2018-03-20T15:46:52.504Z,1.00
2018-03-20T15:49:20.416Z,0.90
2018-03-20T15:51:48.329Z,0.80
2018-03-20T15:54:16.280Z,0.80
2018-03-20T15:56:50.320Z,0.77
2018-03-20T15:59:18.221Z,1.50
2018-03-20T16:01:46.140Z,1.50
2018-03-20T16:04:14.058Z,1.30
2018-03-20T16:06:42.307Z,0.80
2018-03-20T16:09:10.226Z,1.50
2018-03-20T16:11:38.146Z,1.10
2018-03-20T16:14:06.053Z,1.10
2018-03-20T16:16:33.961Z,1.00
2018-03-20T16:19:01.885Z,1.20
2018-03-20T16:21:29.845Z,0.90
2018-03-20T16:23:57.733Z,1.20
2018-03-20T16:26:26.120Z,0.90
2018-03-20T16:28:54.030Z,0.70
2018-03-20T16:31:21.941Z,0.87
2018-03-20T16:33:49.868Z,1.10
2018-03-20T16:36:17.770Z,0.77
2018-03-20T16:38:45.669Z,1.33
2018-03-20T16:41:13.569Z,1.40
2018-03-20T16:43:41.479Z,1.50
2018-03-20T16:46:16.398Z,3.60
2018-03-20T16:48:44.340Z,1.03
2018-03-20T16:51:12.313Z,1.53
2018-03-20T16:53:40.225Z,1.00
2018-03-20T16:56:08.138Z,0.93
2018-03-20T16:58:36.049Z,2.07
2018-03-20T17:01:03.968Z,1.73
2018-03-20T17:03:31.884Z,2.00
2018-03-20T17:05:58.049Z,1.90
2018-03-20T17:16:22.854Z,2.17
2018-03-20T17:44:30.099Z,2.10
2018-03-20T17:46:55.844Z,1.80
2018-03-20T17:49:21.648Z,2.30
2018-03-20T17:51:47.409Z,1.33
2018-03-20T17:54:13.639Z,2.17
2018-03-20T17:56:39.504Z,2.63
2018-03-20T17:59:05.256Z,2.40
2018-03-20T18:01:31.033Z,1.80
2018-03-20T18:03:56.793Z,2.70
2018-03-20T18:06:22.564Z,2.60
2018-03-20T18:08:48.311Z,2.30
2018-03-20T18:11:14.077Z,2.00
2018-03-20T18:13:39.847Z,1.73
2018-03-20T18:16:05.626Z,2.20
2018-03-20T18:18:31.454Z,1.70
2018-03-20T18:20:57.203Z,1.87
2018-03-20T18:23:23.479Z,1.30
2018-03-20T18:25:49.246Z,1.97
2018-03-20T18:28:15.016Z,2.23
2018-03-20T18:30:40.799Z,1.90
2018-03-20T18:33:06.549Z,1.53
2018-03-20T18:35:32.323Z,1.50
2018-03-20T18:37:58.082Z,1.93
2018-03-20T18:40:23.854Z,2.10
2018-03-20T18:42:49.602Z,2.40
2018-03-20T18:45:15.401Z,1.47
2018-03-20T18:47:41.185Z,1.80
2018-03-20T18:50:06.937Z,1.47
2018-03-20T18:52:32.709Z,1.63
2018-03-20T18:54:59.247Z,1.33
2018-03-20T18:57:25.033Z,1.58
2018-03-20T18:59:50.807Z,1.13
2018-03-20T19:02:16.873Z,1.30
2018-03-20T19:04:42.649Z,1.40
2018-03-20T19:07:08.413Z,1.70
2018-03-20T19:09:34.174Z,1.60
2018-03-20T19:11:59.941Z,1.90
2018-03-20T19:14:25.709Z,1.80
2018-03-20T19:16:51.457Z,1.70
2018-03-20T19:19:17.217Z,2.10
2018-03-20T19:21:42.986Z,1.80
2018-03-20T19:24:08.734Z,1.60
2018-03-20T19:26:34.501Z,1.70
2018-03-20T19:29:00.257Z,1.60
2018-03-20T19:31:26.035Z,1.60
2018-03-20T19:33:51.806Z,1.33
2018-03-20T19:36:17.583Z,2.27
2018-03-20T19:38:43.356Z,2.43
2018-03-20T19:41:09.137Z,3.03
2018-03-20T19:43:34.872Z,3.13
2018-03-20T19:46:00.632Z,1.90
2018-03-20T19:48:26.406Z,2.13
2018-03-20T19:50:52.620Z,1.63
2018-03-20T19:53:18.413Z,2.53
2018-03-20T19:55:44.173Z,1.83
2018-03-20T19:58:09.933Z,1.60
2018-03-20T20:00:35.689Z,2.00
2018-03-20T20:03:01.517Z,1.93
2018-03-20T20:05:27.342Z,2.80
2018-03-20T20:07:53.093Z,2.63
2018-03-20T20:10:18.876Z,2.70
2018-03-20T20:12:44.630Z,2.60
2018-03-20T20:15:10.405Z,1.90
2018-03-20T20:17:36.193Z,2.30
2018-03-20T20:20:01.973Z,2.93
2018-03-20T20:22:27.767Z,2.73
2018-03-20T20:27:24.997Z,4.40
2018-03-20T20:29:50.781Z,4.23
2018-03-20T20:32:16.586Z,2.10
2018-03-20T20:34:42.442Z,2.53
2018-03-20T20:37:08.190Z,3.90
2018-03-20T20:39:33.963Z,3.60
2018-03-20T20:42:00.153Z,3.70
2018-03-20T20:46:16.393Z,3.20
2018-03-20T20:48:42.153Z,4.50
2018-03-20T20:51:07.904Z,5.20
2018-03-20T20:53:33.673Z,3.53
2018-03-20T20:55:59.419Z,3.43
2018-03-20T20:58:25.745Z,2.37
2018-03-20T21:00:51.545Z,2.90
2018-03-20T21:03:17.305Z,4.40
2018-03-20T21:05:43.051Z,5.07
2018-03-20T21:08:08.828Z,4.60
2018-03-20T21:10:34.602Z,2.73
2018-03-20T21:13:00.369Z,3.10
2018-03-20T21:15:26.137Z,3.07
2018-03-20T21:17:51.912Z,3.50
2018-03-20T21:20:17.679Z,3.60
2018-03-20T21:22:43.441Z,3.43
2018-03-20T21:25:09.724Z,4.23
2018-03-20T21:27:35.491Z,6.40
2018-03-20T21:30:01.242Z,5.90
2018-03-20T21:32:26.994Z,6.00
2018-03-20T21:34:53.178Z,3.77
2018-03-20T21:37:18.963Z,4.65
2018-03-20T21:39:44.701Z,4.03
2018-03-20T21:42:10.472Z,4.60
2018-03-20T21:44:36.222Z,3.83
2018-03-20T21:47:02.070Z,5.60
2018-03-20T21:49:34.666Z,11.73
2018-03-20T21:52:00.426Z,6.50
2018-03-20T21:54:26.191Z,8.00
2018-03-20T21:56:51.940Z,6.00
2018-03-20T21:59:18.113Z,7.30
2018-03-20T22:01:43.880Z,5.22
2018-03-20T22:04:09.633Z,10.90
2018-03-20T22:06:35.413Z,8.50
2018-03-20T22:09:01.170Z,3.90
2018-03-20T22:11:26.917Z,3.40
2018-03-20T22:13:52.677Z,4.90
2018-03-20T22:16:18.424Z,3.23
2018-03-20T22:18:44.177Z,3.83
2018-03-20T22:21:09.930Z,4.23
2018-03-20T22:23:35.685Z,3.20
2018-03-20T22:26:01.460Z,3.70
2018-03-20T22:28:27.640Z,3.80
2018-03-20T22:30:53.402Z,3.72
2018-03-20T22:33:19.171Z,4.23
2018-03-20T22:35:44.933Z,3.30
2018-03-20T22:38:10.673Z,3.80
2018-03-20T22:40:36.433Z,3.97
2018-03-20T22:43:02.223Z,3.90
2018-03-20T22:45:27.961Z,3.87
2018-03-20T22:47:53.702Z,3.50
2018-03-20T22:50:19.487Z,3.60
2018-03-20T22:52:45.261Z,3.43
2018-03-20T22:55:11.213Z,3.40
2018-03-20T22:57:36.964Z,4.50
2018-03-20T23:00:02.756Z,4.40
2018-03-20T23:02:28.537Z,4.93
2018-03-20T23:04:54.313Z,9.53
2018-03-20T23:07:20.064Z,13.90
2018-03-20T23:09:45.829Z,8.33
2018-03-20T23:12:11.584Z,11.10
2018-03-20T23:14:37.337Z,16.50
2018-03-20T23:17:03.131Z,15.27
2018-03-20T23:19:28.891Z,9.20
2018-03-20T23:21:54.634Z,5.00
2018-03-20T23:24:20.429Z,7.60
2018-03-20T23:26:46.584Z,6.00
2018-03-20T23:29:12.360Z,5.57
2018-03-20T23:31:38.104Z,5.57
2018-03-20T23:34:03.865Z,4.27
2018-03-20T23:36:29.605Z,5.00
2018-03-20T23:38:55.345Z,8.30
2018-03-20T23:41:21.091Z,9.43
2018-03-20T23:43:46.861Z,11.40
2018-03-20T23:46:12.605Z,8.37
2018-03-20T23:48:38.361Z,10.53
2018-03-20T23:51:04.135Z,8.03
2018-03-20T23:53:30.262Z,6.60
2018-03-20T23:55:56.046Z,7.20
2018-03-20T23:58:21.840Z,7.07
